Terminal Aerodrome Forecast
Issued by NWS

Home | Current Version | Previous Version | Text Only | Print | Product List | Glossary On
Versions: 1 2 3 4 5 6 7 8 9 10 11 12
000
FTUS44 KLZK 011730
TAFBPK
TAF
KBPK 011730Z 0118/0218 VRB03KT P6SM SKC
     FM020000 00000KT P6SM SCT250
      TEMPO 0210/0213 1SM BR
     FM021700 21003KT P6SM SCT250=

USA.gov is the U.S. government's official web portal to all federal, state and local government web resources and services.